sensor_id;sensor_type;location;lat;lon;timestamp;P1;durP1;ratioP1;P2;durP2;ratioP2
8100;SDS011;4093;53.470;9.832;2023-03-14T00:01:13;7.73;;;3.57;;
8100;SDS011;4093;53.470;9.832;2023-03-14T00:03:43;7.13;;;4.67;;
8100;SDS011;4093;53.470;9.832;2023-03-14T00:06:11;7.63;;;3.93;;
8100;SDS011;4093;53.470;9.832;2023-03-14T00:08:41;6.70;;;3.97;;
8100;SDS011;4093;53.470;9.832;2023-03-14T00:11:11;6.87;;;3.70;;
8100;SDS011;4093;53.470;9.832;2023-03-14T00:13:40;6.50;;;3.60;;
8100;SDS011;4093;53.470;9.832;2023-03-14T00:16:09;9.87;;;3.93;;
8100;SDS011;4093;53.470;9.832;2023-03-14T00:18:38;7.93;;;4.00;;
8100;SDS011;4093;53.470;9.832;2023-03-14T00:21:07;11.37;;;4.40;;
8100;SDS011;4093;53.470;9.832;2023-03-14T00:23:36;8.97;;;4.37;;
8100;SDS011;4093;53.470;9.832;2023-03-14T00:26:08;10.07;;;4.43;;
8100;SDS011;4093;53.470;9.832;2023-03-14T00:28:37;5.50;;;3.57;;
8100;SDS011;4093;53.470;9.832;2023-03-14T00:31:06;6.67;;;3.87;;
8100;SDS011;4093;53.470;9.832;2023-03-14T00:33:35;6.80;;;3.83;;
8100;SDS011;4093;53.470;9.832;2023-03-14T00:36:04;7.23;;;4.00;;
8100;SDS011;4093;53.470;9.832;2023-03-14T00:38:35;9.80;;;4.30;;
8100;SDS011;4093;53.470;9.832;2023-03-14T00:41:04;7.03;;;3.60;;
8100;SDS011;4093;53.470;9.832;2023-03-14T00:43:34;8.47;;;3.63;;
8100;SDS011;4093;53.470;9.832;2023-03-14T00:46:02;7.53;;;4.00;;
8100;SDS011;4093;53.470;9.832;2023-03-14T00:48:31;7.87;;;4.13;;
8100;SDS011;4093;53.470;9.832;2023-03-14T00:50:59;8.33;;;4.10;;
8100;SDS011;4093;53.470;9.832;2023-03-14T00:53:27;9.37;;;4.30;;
8100;SDS011;4093;53.470;9.832;2023-03-14T00:55:55;8.33;;;3.90;;
8100;SDS011;4093;53.470;9.832;2023-03-14T00:58:23;10.33;;;4.33;;
8100;SDS011;4093;53.470;9.832;2023-03-14T01:00:52;9.13;;;4.20;;
8100;SDS011;4093;53.470;9.832;2023-03-14T01:03:20;8.20;;;4.30;;
8100;SDS011;4093;53.470;9.832;2023-03-14T01:05:50;9.13;;;3.60;;
8100;SDS011;4093;53.470;9.832;2023-03-14T01:08:18;5.63;;;3.77;;
8100;SDS011;4093;53.470;9.832;2023-03-14T01:10:46;8.67;;;4.00;;
8100;SDS011;4093;53.470;9.832;2023-03-14T01:13:17;9.10;;;3.63;;
8100;SDS011;4093;53.470;9.832;2023-03-14T01:15:45;7.03;;;3.40;;
8100;SDS011;4093;53.470;9.832;2023-03-14T01:18:15;6.67;;;4.00;;
8100;SDS011;4093;53.470;9.832;2023-03-14T01:20:43;7.37;;;3.90;;
8100;SDS011;4093;53.470;9.832;2023-03-14T01:23:14;6.77;;;3.60;;
8100;SDS011;4093;53.470;9.832;2023-03-14T01:25:42;9.03;;;4.40;;
8100;SDS011;4093;53.470;9.832;2023-03-14T01:28:10;12.60;;;4.17;;
8100;SDS011;4093;53.470;9.832;2023-03-14T01:30:38;7.57;;;3.60;;
8100;SDS011;4093;53.470;9.832;2023-03-14T01:33:06;7.20;;;3.57;;
8100;SDS011;4093;53.470;9.832;2023-03-14T01:35:36;8.60;;;4.27;;
8100;SDS011;4093;53.470;9.832;2023-03-14T01:38:03;7.67;;;4.30;;
8100;SDS011;4093;53.470;9.832;2023-03-14T01:40:32;9.33;;;3.93;;
8100;SDS011;4093;53.470;9.832;2023-03-14T01:43:05;7.73;;;3.83;;
8100;SDS011;4093;53.470;9.832;2023-03-14T01:46:01;9.20;;;4.27;;
8100;SDS011;4093;53.470;9.832;2023-03-14T01:48:48;6.13;;;3.90;;
8100;SDS011;4093;53.470;9.832;2023-03-14T01:51:26;7.27;;;4.37;;
8100;SDS011;4093;53.470;9.832;2023-03-14T01:54:02;8.30;;;4.13;;
8100;SDS011;4093;53.470;9.832;2023-03-14T01:56:36;8.07;;;4.07;;
8100;SDS011;4093;53.470;9.832;2023-03-14T01:59:06;9.13;;;4.10;;
8100;SDS011;4093;53.470;9.832;2023-03-14T02:01:36;7.67;;;4.20;;
8100;SDS011;4093;53.470;9.832;2023-03-14T02:04:09;8.80;;;3.67;;
8100;SDS011;4093;53.470;9.832;2023-03-14T02:06:42;7.10;;;4.20;;
8100;SDS011;4093;53.470;9.832;2023-03-14T02:09:16;9.20;;;3.83;;
8100;SDS011;4093;53.470;9.832;2023-03-14T02:11:44;6.77;;;3.73;;
8100;SDS011;4093;53.470;9.832;2023-03-14T02:14:14;9.17;;;3.87;;
8100;SDS011;4093;53.470;9.832;2023-03-14T02:16:50;7.30;;;3.63;;
8100;SDS011;4093;53.470;9.832;2023-03-14T02:19:20;9.37;;;3.50;;
8100;SDS011;4093;53.470;9.832;2023-03-14T02:22:02;11.63;;;4.40;;
8100;SDS011;4093;53.470;9.832;2023-03-14T02:24:38;8.40;;;3.83;;
8100;SDS011;4093;53.470;9.832;2023-03-14T02:27:15;7.37;;;3.60;;
8100;SDS011;4093;53.470;9.832;2023-03-14T02:29:47;4.77;;;4.00;;
8100;SDS011;4093;53.470;9.832;2023-03-14T02:32:22;7.87;;;4.30;;
8100;SDS011;4093;53.470;9.832;2023-03-14T02:35:00;11.37;;;4.73;;
8100;SDS011;4093;53.470;9.832;2023-03-14T02:37:32;10.90;;;5.03;;
8100;SDS011;4093;53.470;9.832;2023-03-14T02:40:06;6.80;;;4.33;;
8100;SDS011;4093;53.470;9.832;2023-03-14T02:42:38;9.17;;;4.83;;
8100;SDS011;4093;53.470;9.832;2023-03-14T02:48:05;11.37;;;4.23;;
8100;SDS011;4093;53.470;9.832;2023-03-14T02:50:36;9.20;;;5.10;;
8100;SDS011;4093;53.470;9.832;2023-03-14T02:53:05;9.83;;;5.27;;
8100;SDS011;4093;53.470;9.832;2023-03-14T02:55:34;9.60;;;4.87;;
8100;SDS011;4093;53.470;9.832;2023-03-14T02:58:05;8.97;;;4.00;;
8100;SDS011;4093;53.470;9.832;2023-03-14T03:00:33;13.07;;;5.27;;
8100;SDS011;4093;53.470;9.832;2023-03-14T03:03:02;7.17;;;3.97;;
8100;SDS011;4093;53.470;9.832;2023-03-14T03:05:32;8.90;;;4.80;;
8100;SDS011;4093;53.470;9.832;2023-03-14T03:08:00;8.57;;;4.30;;
8100;SDS011;4093;53.470;9.832;2023-03-14T03:10:29;8.13;;;4.30;;
8100;SDS011;4093;53.470;9.832;2023-03-14T03:12:59;6.27;;;4.10;;
8100;SDS011;4093;53.470;9.832;2023-03-14T03:15:29;5.83;;;4.03;;
8100;SDS011;4093;53.470;9.832;2023-03-14T03:17:59;5.23;;;3.63;;
8100;SDS011;4093;53.470;9.832;2023-03-14T03:20:27;7.83;;;4.10;;
8100;SDS011;4093;53.470;9.832;2023-03-14T03:22:54;7.97;;;4.20;;
8100;SDS011;4093;53.470;9.832;2023-03-14T03:25:22;6.33;;;3.90;;
8100;SDS011;4093;53.470;9.832;2023-03-14T03:27:51;8.07;;;4.27;;
8100;SDS011;4093;53.470;9.832;2023-03-14T03:30:22;8.73;;;3.97;;
8100;SDS011;4093;53.470;9.832;2023-03-14T03:32:52;6.57;;;3.80;;
8100;SDS011;4093;53.470;9.832;2023-03-14T03:35:20;7.20;;;4.00;;
8100;SDS011;4093;53.470;9.832;2023-03-14T03:37:48;7.70;;;4.00;;
8100;SDS011;4093;53.470;9.832;2023-03-14T03:40:16;8.17;;;3.60;;
8100;SDS011;4093;53.470;9.832;2023-03-14T03:42:44;9.80;;;3.93;;
8100;SDS011;4093;53.470;9.832;2023-03-14T03:45:13;8.97;;;3.57;;
8100;SDS011;4093;53.470;9.832;2023-03-14T03:47:41;10.17;;;3.90;;
8100;SDS011;4093;53.470;9.832;2023-03-14T03:50:11;7.33;;;3.63;;
8100;SDS011;4093;53.470;9.832;2023-03-14T03:52:39;6.23;;;3.97;;
8100;SDS011;4093;53.470;9.832;2023-03-14T03:55:07;7.97;;;3.80;;
8100;SDS011;4093;53.470;9.832;2023-03-14T03:57:36;7.30;;;3.77;;
8100;SDS011;4093;53.470;9.832;2023-03-14T04:00:04;6.60;;;3.50;;
8100;SDS011;4093;53.470;9.832;2023-03-14T04:02:36;8.63;;;4.47;;
8100;SDS011;4093;53.470;9.832;2023-03-14T04:05:05;9.80;;;3.83;;
8100;SDS011;4093;53.470;9.832;2023-03-14T04:07:34;8.23;;;4.23;;
8100;SDS011;4093;53.470;9.832;2023-03-14T04:10:02;8.90;;;4.27;;
8100;SDS011;4093;53.470;9.832;2023-03-14T04:12:33;9.63;;;4.00;;
8100;SDS011;4093;53.470;9.832;2023-03-14T04:15:02;5.83;;;3.90;;
8100;SDS011;4093;53.470;9.832;2023-03-14T04:17:30;6.50;;;3.80;;
8100;SDS011;4093;53.470;9.832;2023-03-14T04:19:58;8.60;;;4.53;;
8100;SDS011;4093;53.470;9.832;2023-03-14T04:22:26;8.03;;;4.40;;
8100;SDS011;4093;53.470;9.832;2023-03-14T04:24:55;7.47;;;4.60;;
8100;SDS011;4093;53.470;9.832;2023-03-14T04:27:23;6.80;;;4.20;;
8100;SDS011;4093;53.470;9.832;2023-03-14T04:29:51;7.97;;;4.40;;
8100;SDS011;4093;53.470;9.832;2023-03-14T04:32:19;11.30;;;5.10;;
8100;SDS011;4093;53.470;9.832;2023-03-14T04:34:47;9.37;;;5.13;;
8100;SDS011;4093;53.470;9.832;2023-03-14T04:37:17;10.50;;;4.57;;
8100;SDS011;4093;53.470;9.832;2023-03-14T04:39:45;9.97;;;4.50;;
8100;SDS011;4093;53.470;9.832;2023-03-14T04:42:16;7.43;;;4.53;;
8100;SDS011;4093;53.470;9.832;2023-03-14T04:44:44;9.13;;;5.00;;
8100;SDS011;4093;53.470;9.832;2023-03-14T04:47:13;8.00;;;4.40;;
8100;SDS011;4093;53.470;9.832;2023-03-14T04:49:43;8.87;;;4.20;;
8100;SDS011;4093;53.470;9.832;2023-03-14T04:52:11;6.47;;;4.03;;
8100;SDS011;4093;53.470;9.832;2023-03-14T04:54:39;8.50;;;4.50;;
8100;SDS011;4093;53.470;9.832;2023-03-14T04:57:06;7.03;;;3.87;;
8100;SDS011;4093;53.470;9.832;2023-03-14T04:59:37;9.80;;;4.27;;
8100;SDS011;4093;53.470;9.832;2023-03-14T05:02:04;9.87;;;4.70;;
8100;SDS011;4093;53.470;9.832;2023-03-14T05:04:39;10.03;;;5.03;;
8100;SDS011;4093;53.470;9.832;2023-03-14T05:07:07;7.73;;;4.03;;
8100;SDS011;4093;53.470;9.832;2023-03-14T05:09:38;7.40;;;4.10;;
8100;SDS011;4093;53.470;9.832;2023-03-14T05:12:06;4.63;;;3.93;;
8100;SDS011;4093;53.470;9.832;2023-03-14T05:14:36;7.10;;;4.23;;
8100;SDS011;4093;53.470;9.832;2023-03-14T05:17:05;8.37;;;4.27;;
8100;SDS011;4093;53.470;9.832;2023-03-14T05:19:34;7.17;;;4.03;;
8100;SDS011;4093;53.470;9.832;2023-03-14T05:22:03;7.93;;;4.27;;
8100;SDS011;4093;53.470;9.832;2023-03-14T05:24:31;6.17;;;4.50;;
8100;SDS011;4093;53.470;9.832;2023-03-14T05:27:00;5.37;;;4.70;;
8100;SDS011;4093;53.470;9.832;2023-03-14T05:29:30;7.70;;;5.30;;
8100;SDS011;4093;53.470;9.832;2023-03-14T05:31:59;5.80;;;4.47;;
8100;SDS011;4093;53.470;9.832;2023-03-14T05:34:27;7.33;;;5.10;;
8100;SDS011;4093;53.470;9.832;2023-03-14T05:36:55;6.57;;;4.97;;
8100;SDS011;4093;53.470;9.832;2023-03-14T05:39:24;8.57;;;5.10;;
8100;SDS011;4093;53.470;9.832;2023-03-14T05:41:53;7.97;;;4.67;;
8100;SDS011;4093;53.470;9.832;2023-03-14T05:44:22;7.03;;;4.57;;
8100;SDS011;4093;53.470;9.832;2023-03-14T05:46:50;7.43;;;4.50;;
8100;SDS011;4093;53.470;9.832;2023-03-14T05:49:20;9.67;;;4.70;;
8100;SDS011;4093;53.470;9.832;2023-03-14T05:51:48;10.87;;;4.80;;
8100;SDS011;4093;53.470;9.832;2023-03-14T05:54:15;9.17;;;5.20;;
8100;SDS011;4093;53.470;9.832;2023-03-14T05:56:43;6.93;;;5.03;;
8100;SDS011;4093;53.470;9.832;2023-03-14T05:59:11;9.50;;;5.40;;
8100;SDS011;4093;53.470;9.832;2023-03-14T06:01:41;8.10;;;5.37;;
8100;SDS011;4093;53.470;9.832;2023-03-14T06:04:09;7.43;;;4.90;;
8100;SDS011;4093;53.470;9.832;2023-03-14T06:06:38;7.73;;;4.97;;
8100;SDS011;4093;53.470;9.832;2023-03-14T06:09:06;16.50;;;5.20;;
8100;SDS011;4093;53.470;9.832;2023-03-14T06:11:34;8.03;;;4.70;;
8100;SDS011;4093;53.470;9.832;2023-03-14T06:14:03;9.13;;;4.87;;
8100;SDS011;4093;53.470;9.832;2023-03-14T06:16:32;9.33;;;4.80;;
8100;SDS011;4093;53.470;9.832;2023-03-14T06:19:01;6.70;;;4.70;;
8100;SDS011;4093;53.470;9.832;2023-03-14T06:21:30;6.47;;;4.50;;
8100;SDS011;4093;53.470;9.832;2023-03-14T06:24:00;12.10;;;5.13;;
8100;SDS011;4093;53.470;9.832;2023-03-14T06:26:29;7.73;;;4.20;;
8100;SDS011;4093;53.470;9.832;2023-03-14T06:28:57;7.50;;;3.87;;
8100;SDS011;4093;53.470;9.832;2023-03-14T06:31:29;8.10;;;3.60;;
8100;SDS011;4093;53.470;9.832;2023-03-14T06:33:57;8.90;;;3.53;;
8100;SDS011;4093;53.470;9.832;2023-03-14T06:36:30;9.10;;;3.83;;
8100;SDS011;4093;53.470;9.832;2023-03-14T06:38:57;5.53;;;3.40;;
8100;SDS011;4093;53.470;9.832;2023-03-14T06:41:29;7.07;;;3.23;;
8100;SDS011;4093;53.470;9.832;2023-03-14T06:43:59;7.97;;;3.37;;
8100;SDS011;4093;53.470;9.832;2023-03-14T06:46:27;7.37;;;3.43;;
8100;SDS011;4093;53.470;9.832;2023-03-14T06:48:55;5.87;;;2.97;;
8100;SDS011;4093;53.470;9.832;2023-03-14T06:51:23;10.57;;;3.40;;
8100;SDS011;4093;53.470;9.832;2023-03-14T06:53:52;7.97;;;3.10;;
8100;SDS011;4093;53.470;9.832;2023-03-14T06:56:24;8.53;;;3.00;;
8100;SDS011;4093;53.470;9.832;2023-03-14T06:58:53;5.57;;;2.87;;
8100;SDS011;4093;53.470;9.832;2023-03-14T07:01:22;9.87;;;2.97;;
8100;SDS011;4093;53.470;9.832;2023-03-14T07:03:55;8.50;;;3.10;;
8100;SDS011;4093;53.470;9.832;2023-03-14T07:06:24;6.60;;;3.23;;
8100;SDS011;4093;53.470;9.832;2023-03-14T07:08:53;7.37;;;6.43;;
8100;SDS011;4093;53.470;9.832;2023-03-14T07:11:22;13.83;;;9.30;;
8100;SDS011;4093;53.470;9.832;2023-03-14T07:13:50;10.13;;;6.33;;
8100;SDS011;4093;53.470;9.832;2023-03-14T07:16:18;5.40;;;3.43;;
8100;SDS011;4093;53.470;9.832;2023-03-14T07:18:46;6.87;;;4.33;;
8100;SDS011;4093;53.470;9.832;2023-03-14T07:21:15;5.70;;;3.37;;
8100;SDS011;4093;53.470;9.832;2023-03-14T07:23:43;5.37;;;3.70;;
8100;SDS011;4093;53.470;9.832;2023-03-14T07:26:13;5.30;;;3.40;;
8100;SDS011;4093;53.470;9.832;2023-03-14T07:28:45;4.23;;;3.00;;
8100;SDS011;4093;53.470;9.832;2023-03-14T07:31:15;10.83;;;3.03;;
8100;SDS011;4093;53.470;9.832;2023-03-14T07:33:43;5.70;;;3.00;;
8100;SDS011;4093;53.470;9.832;2023-03-14T07:36:11;5.87;;;2.77;;
8100;SDS011;4093;53.470;9.832;2023-03-14T07:38:40;3.90;;;2.60;;
8100;SDS011;4093;53.470;9.832;2023-03-14T07:41:10;5.53;;;2.30;;
8100;SDS011;4093;53.470;9.832;2023-03-14T07:43:38;4.17;;;2.37;;
8100;SDS011;4093;53.470;9.832;2023-03-14T07:46:08;4.13;;;2.13;;
8100;SDS011;4093;53.470;9.832;2023-03-14T07:48:36;2.40;;;2.07;;
8100;SDS011;4093;53.470;9.832;2023-03-14T07:51:04;3.17;;;2.03;;
8100;SDS011;4093;53.470;9.832;2023-03-14T07:53:34;2.97;;;2.10;;
8100;SDS011;4093;53.470;9.832;2023-03-14T07:56:03;5.33;;;2.40;;
8100;SDS011;4093;53.470;9.832;2023-03-14T07:58:31;3.80;;;2.60;;
8100;SDS011;4093;53.470;9.832;2023-03-14T08:01:01;5.53;;;2.63;;
8100;SDS011;4093;53.470;9.832;2023-03-14T08:03:32;3.83;;;2.00;;
8100;SDS011;4093;53.470;9.832;2023-03-14T08:06:00;4.70;;;2.80;;
8100;SDS011;4093;53.470;9.832;2023-03-14T08:08:28;7.10;;;3.10;;
8100;SDS011;4093;53.470;9.832;2023-03-14T08:11:01;5.10;;;2.80;;
8100;SDS011;4093;53.470;9.832;2023-03-14T08:13:31;6.80;;;3.50;;
8100;SDS011;4093;53.470;9.832;2023-03-14T08:15:59;3.97;;;3.00;;
8100;SDS011;4093;53.470;9.832;2023-03-14T08:18:28;7.07;;;3.03;;
8100;SDS011;4093;53.470;9.832;2023-03-14T08:20:58;6.23;;;3.20;;
8100;SDS011;4093;53.470;9.832;2023-03-14T08:23:26;7.63;;;3.47;;
8100;SDS011;4093;53.470;9.832;2023-03-14T08:25:54;7.50;;;3.53;;
8100;SDS011;4093;53.470;9.832;2023-03-14T08:28:24;6.03;;;3.63;;
8100;SDS011;4093;53.470;9.832;2023-03-14T08:30:56;7.00;;;4.00;;
8100;SDS011;4093;53.470;9.832;2023-03-14T08:33:25;7.93;;;4.13;;
8100;SDS011;4093;53.470;9.832;2023-03-14T08:35:54;11.10;;;6.00;;
8100;SDS011;4093;53.470;9.832;2023-03-14T08:38:25;14.90;;;8.17;;
8100;SDS011;4093;53.470;9.832;2023-03-14T08:40:57;23.37;;;11.73;;
8100;SDS011;4093;53.470;9.832;2023-03-14T08:43:30;21.80;;;10.27;;
8100;SDS011;4093;53.470;9.832;2023-03-14T08:45:58;36.83;;;17.87;;
8100;SDS011;4093;53.470;9.832;2023-03-14T08:48:27;20.53;;;8.83;;
8100;SDS011;4093;53.470;9.832;2023-03-14T08:51:03;11.73;;;6.63;;
8100;SDS011;4093;53.470;9.832;2023-03-14T08:53:33;13.33;;;7.70;;
8100;SDS011;4093;53.470;9.832;2023-03-14T08:56:02;40.23;;;19.80;;
8100;SDS011;4093;53.470;9.832;2023-03-14T08:58:31;22.27;;;12.10;;
8100;SDS011;4093;53.470;9.832;2023-03-14T09:01:00;18.43;;;9.80;;
8100;SDS011;4093;53.470;9.832;2023-03-14T09:03:28;14.83;;;8.20;;
8100;SDS011;4093;53.470;9.832;2023-03-14T09:05:56;21.07;;;11.80;;
8100;SDS011;4093;53.470;9.832;2023-03-14T09:08:29;43.57;;;19.80;;
8100;SDS011;4093;53.470;9.832;2023-03-14T09:10:59;40.80;;;18.50;;
8100;SDS011;4093;53.470;9.832;2023-03-14T09:13:27;38.73;;;19.20;;
8100;SDS011;4093;53.470;9.832;2023-03-14T09:15:56;43.77;;;19.63;;
8100;SDS011;4093;53.470;9.832;2023-03-14T09:18:26;44.07;;;22.43;;
8100;SDS011;4093;53.470;9.832;2023-03-14T09:20:55;24.93;;;12.10;;
8100;SDS011;4093;53.470;9.832;2023-03-14T09:23:24;39.43;;;20.13;;
8100;SDS011;4093;53.470;9.832;2023-03-14T09:25:54;27.97;;;14.10;;
8100;SDS011;4093;53.470;9.832;2023-03-14T09:28:26;36.03;;;18.37;;
8100;SDS011;4093;53.470;9.832;2023-03-14T09:30:54;21.10;;;10.40;;
8100;SDS011;4093;53.470;9.832;2023-03-14T09:33:22;40.43;;;19.93;;
8100;SDS011;4093;53.470;9.832;2023-03-14T09:35:52;15.60;;;8.10;;
8100;SDS011;4093;53.470;9.832;2023-03-14T09:38:22;22.07;;;12.67;;
8100;SDS011;4093;53.470;9.832;2023-03-14T09:40:51;13.37;;;7.87;;
8100;SDS011;4093;53.470;9.832;2023-03-14T09:43:20;8.47;;;6.47;;
8100;SDS011;4093;53.470;9.832;2023-03-14T09:45:52;8.60;;;6.00;;
8100;SDS011;4093;53.470;9.832;2023-03-14T09:48:21;10.23;;;5.80;;
8100;SDS011;4093;53.470;9.832;2023-03-14T09:50:51;11.67;;;5.00;;
8100;SDS011;4093;53.470;9.832;2023-03-14T09:53:23;3.70;;;2.20;;
8100;SDS011;4093;53.470;9.832;2023-03-14T09:55:54;3.13;;;1.53;;
8100;SDS011;4093;53.470;9.832;2023-03-14T09:58:27;2.87;;;1.40;;
8100;SDS011;4093;53.470;9.832;2023-03-14T10:01:00;3.90;;;1.60;;
8100;SDS011;4093;53.470;9.832;2023-03-14T10:03:31;5.97;;;1.90;;
8100;SDS011;4093;53.470;9.832;2023-03-14T10:06:01;2.90;;;2.57;;
8100;SDS011;4093;53.470;9.832;2023-03-14T10:08:31;5.50;;;2.50;;
8100;SDS011;4093;53.470;9.832;2023-03-14T10:11:02;4.30;;;2.07;;
8100;SDS011;4093;53.470;9.832;2023-03-14T10:13:30;5.63;;;2.60;;
8100;SDS011;4093;53.470;9.832;2023-03-14T10:16:00;2.17;;;1.80;;
8100;SDS011;4093;53.470;9.832;2023-03-14T10:18:30;3.80;;;1.90;;
8100;SDS011;4093;53.470;9.832;2023-03-14T10:21:02;4.27;;;1.80;;
8100;SDS011;4093;53.470;9.832;2023-03-14T10:23:33;3.60;;;1.60;;
8100;SDS011;4093;53.470;9.832;2023-03-14T10:26:06;2.47;;;1.50;;
8100;SDS011;4093;53.470;9.832;2023-03-14T10:28:38;2.07;;;1.43;;
8100;SDS011;4093;53.470;9.832;2023-03-14T10:31:09;2.67;;;1.40;;
8100;SDS011;4093;53.470;9.832;2023-03-14T10:33:37;1.93;;;1.30;;
8100;SDS011;4093;53.470;9.832;2023-03-14T10:36:06;2.27;;;1.20;;
8100;SDS011;4093;53.470;9.832;2023-03-14T10:38:45;1.40;;;1.23;;
8100;SDS011;4093;53.470;9.832;2023-03-14T10:41:16;2.00;;;1.30;;
8100;SDS011;4093;53.470;9.832;2023-03-14T10:43:49;2.20;;;1.47;;
8100;SDS011;4093;53.470;9.832;2023-03-14T10:46:19;1.90;;;1.20;;
8100;SDS011;4093;53.470;9.832;2023-03-14T10:48:51;1.07;;;0.97;;
8100;SDS011;4093;53.470;9.832;2023-03-14T10:51:24;1.93;;;1.00;;
8100;SDS011;4093;53.470;9.832;2023-03-14T10:53:58;2.83;;;1.20;;
8100;SDS011;4093;53.470;9.832;2023-03-14T10:56:33;1.20;;;1.10;;
8100;SDS011;4093;53.470;9.832;2023-03-14T10:59:03;1.70;;;1.20;;
8100;SDS011;4093;53.470;9.832;2023-03-14T11:01:38;1.90;;;1.40;;
8100;SDS011;4093;53.470;9.832;2023-03-14T11:04:14;1.00;;;1.00;;
8100;SDS011;4093;53.470;9.832;2023-03-14T11:06:53;2.47;;;1.20;;
8100;SDS011;4093;53.470;9.832;2023-03-14T11:09:30;1.13;;;1.00;;
8100;SDS011;4093;53.470;9.832;2023-03-14T11:12:08;0.80;;;0.77;;
8100;SDS011;4093;53.470;9.832;2023-03-14T11:14:51;1.00;;;1.00;;
8100;SDS011;4093;53.470;9.832;2023-03-14T11:17:30;1.73;;;1.10;;
8100;SDS011;4093;53.470;9.832;2023-03-14T11:20:13;2.40;;;0.90;;
8100;SDS011;4093;53.470;9.832;2023-03-14T11:22:55;1.27;;;1.17;;
8100;SDS011;4093;53.470;9.832;2023-03-14T11:25:32;1.27;;;1.00;;
8100;SDS011;4093;53.470;9.832;2023-03-14T11:28:08;5.73;;;1.37;;
8100;SDS011;4093;53.470;9.832;2023-03-14T11:30:42;2.67;;;1.30;;
8100;SDS011;4093;53.470;9.832;2023-03-14T11:33:23;2.93;;;1.47;;
8100;SDS011;4093;53.470;9.832;2023-03-14T11:36:03;3.37;;;1.70;;
8100;SDS011;4093;53.470;9.832;2023-03-14T11:38:37;3.77;;;1.30;;
8100;SDS011;4093;53.470;9.832;2023-03-14T11:41:10;3.67;;;1.60;;
8100;SDS011;4093;53.470;9.832;2023-03-14T11:43:43;2.40;;;1.57;;
8100;SDS011;4093;53.470;9.832;2023-03-14T11:46:17;2.63;;;1.50;;
8100;SDS011;4093;53.470;9.832;2023-03-14T11:48:53;10.40;;;1.70;;
8100;SDS011;4093;53.470;9.832;2023-03-14T11:51:29;6.53;;;1.90;;
8100;SDS011;4093;53.470;9.832;2023-03-14T11:54:02;7.53;;;2.43;;
8100;SDS011;4093;53.470;9.832;2023-03-14T11:56:37;1.90;;;1.40;;
8100;SDS011;4093;53.470;9.832;2023-03-14T11:59:14;6.77;;;2.10;;
8100;SDS011;4093;53.470;9.832;2023-03-14T12:01:52;5.67;;;1.50;;
8100;SDS011;4093;53.470;9.832;2023-03-14T12:04:25;8.27;;;2.17;;
8100;SDS011;4093;53.470;9.832;2023-03-14T12:07:12;7.83;;;1.90;;
8100;SDS011;4093;53.470;9.832;2023-03-14T12:09:47;6.00;;;2.30;;
8100;SDS011;4093;53.470;9.832;2023-03-14T12:12:22;6.77;;;2.30;;
8100;SDS011;4093;53.470;9.832;2023-03-14T12:14:54;5.20;;;1.67;;
8100;SDS011;4093;53.470;9.832;2023-03-14T12:17:24;7.00;;;2.27;;
8100;SDS011;4093;53.470;9.832;2023-03-14T12:20:03;9.13;;;1.97;;
8100;SDS011;4093;53.470;9.832;2023-03-14T12:22:42;7.50;;;1.90;;
8100;SDS011;4093;53.470;9.832;2023-03-14T12:25:14;8.17;;;2.37;;
8100;SDS011;4093;53.470;9.832;2023-03-14T12:27:47;8.97;;;2.50;;
8100;SDS011;4093;53.470;9.832;2023-03-14T12:30:37;10.43;;;2.13;;
8100;SDS011;4093;53.470;9.832;2023-03-14T12:36:04;10.03;;;2.53;;
8100;SDS011;4093;53.470;9.832;2023-03-14T12:41:36;4.23;;;2.30;;
8100;SDS011;4093;53.470;9.832;2023-03-14T12:50:20;15.43;;;2.93;;
8100;SDS011;4093;53.470;9.832;2023-03-14T12:53:05;6.53;;;2.50;;
8100;SDS011;4093;53.470;9.832;2023-03-14T12:55:45;9.97;;;2.77;;
8100;SDS011;4093;53.470;9.832;2023-03-14T12:58:27;6.40;;;2.40;;
8100;SDS011;4093;53.470;9.832;2023-03-14T13:00:59;11.00;;;2.93;;
8100;SDS011;4093;53.470;9.832;2023-03-14T13:03:36;13.03;;;3.10;;
8100;SDS011;4093;53.470;9.832;2023-03-14T13:06:08;12.43;;;3.33;;
8100;SDS011;4093;53.470;9.832;2023-03-14T13:08:42;10.13;;;3.37;;
8100;SDS011;4093;53.470;9.832;2023-03-14T13:11:12;13.67;;;3.93;;
8100;SDS011;4093;53.470;9.832;2023-03-14T13:13:45;15.67;;;3.23;;
8100;SDS011;4093;53.470;9.832;2023-03-14T13:16:16;8.70;;;3.20;;
8100;SDS011;4093;53.470;9.832;2023-03-14T13:18:50;11.93;;;3.20;;
8100;SDS011;4093;53.470;9.832;2023-03-14T13:21:34;12.83;;;3.27;;
8100;SDS011;4093;53.470;9.832;2023-03-14T13:24:05;8.73;;;3.03;;
8100;SDS011;4093;53.470;9.832;2023-03-14T13:26:36;7.47;;;2.47;;
8100;SDS011;4093;53.470;9.832;2023-03-14T13:29:09;7.73;;;2.67;;
8100;SDS011;4093;53.470;9.832;2023-03-14T13:31:47;8.43;;;2.40;;
8100;SDS011;4093;53.470;9.832;2023-03-14T13:34:16;6.80;;;2.17;;
8100;SDS011;4093;53.470;9.832;2023-03-14T13:36:45;12.17;;;2.60;;
8100;SDS011;4093;53.470;9.832;2023-03-14T13:39:19;5.67;;;2.20;;
8100;SDS011;4093;53.470;9.832;2023-03-14T13:41:51;11.40;;;3.10;;
8100;SDS011;4093;53.470;9.832;2023-03-14T13:44:23;6.07;;;2.73;;
8100;SDS011;4093;53.470;9.832;2023-03-14T13:46:56;13.93;;;3.00;;
8100;SDS011;4093;53.470;9.832;2023-03-14T13:49:26;9.17;;;2.53;;
8100;SDS011;4093;53.470;9.832;2023-03-14T13:51:57;11.47;;;2.80;;
8100;SDS011;4093;53.470;9.832;2023-03-14T13:54:30;8.50;;;3.13;;
8100;SDS011;4093;53.470;9.832;2023-03-14T13:57:08;9.63;;;2.97;;
8100;SDS011;4093;53.470;9.832;2023-03-14T13:59:36;11.33;;;2.50;;
8100;SDS011;4093;53.470;9.832;2023-03-14T14:02:04;7.13;;;2.47;;
8100;SDS011;4093;53.470;9.832;2023-03-14T14:04:43;8.10;;;2.50;;
8100;SDS011;4093;53.470;9.832;2023-03-14T14:07:13;6.27;;;2.70;;
8100;SDS011;4093;53.470;9.832;2023-03-14T14:09:47;6.77;;;2.57;;
8100;SDS011;4093;53.470;9.832;2023-03-14T14:12:19;6.67;;;2.53;;
8100;SDS011;4093;53.470;9.832;2023-03-14T14:14:55;8.30;;;2.60;;
8100;SDS011;4093;53.470;9.832;2023-03-14T14:17:27;5.53;;;2.17;;
8100;SDS011;4093;53.470;9.832;2023-03-14T14:20:02;8.47;;;2.57;;
8100;SDS011;4093;53.470;9.832;2023-03-14T14:22:33;6.77;;;2.30;;
8100;SDS011;4093;53.470;9.832;2023-03-14T14:25:04;9.37;;;2.77;;
8100;SDS011;4093;53.470;9.832;2023-03-14T14:27:35;8.33;;;2.50;;
8100;SDS011;4093;53.470;9.832;2023-03-14T14:30:21;7.40;;;2.83;;
8100;SDS011;4093;53.470;9.832;2023-03-14T14:33:06;5.60;;;2.57;;
8100;SDS011;4093;53.470;9.832;2023-03-14T14:35:40;10.83;;;2.53;;
8100;SDS011;4093;53.470;9.832;2023-03-14T14:38:10;12.40;;;2.90;;
8100;SDS011;4093;53.470;9.832;2023-03-14T14:40:44;12.07;;;2.33;;
8100;SDS011;4093;53.470;9.832;2023-03-14T14:43:15;4.27;;;1.97;;
8100;SDS011;4093;53.470;9.832;2023-03-14T14:45:46;6.93;;;2.40;;
8100;SDS011;4093;53.470;9.832;2023-03-14T14:48:18;9.37;;;2.33;;
8100;SDS011;4093;53.470;9.832;2023-03-14T14:50:49;11.90;;;2.40;;
8100;SDS011;4093;53.470;9.832;2023-03-14T14:53:23;7.57;;;2.20;;
8100;SDS011;4093;53.470;9.832;2023-03-14T14:55:56;5.47;;;2.23;;
8100;SDS011;4093;53.470;9.832;2023-03-14T14:58:26;6.87;;;2.37;;
8100;SDS011;4093;53.470;9.832;2023-03-14T15:00:57;6.57;;;2.27;;
8100;SDS011;4093;53.470;9.832;2023-03-14T15:03:31;8.13;;;2.20;;
8100;SDS011;4093;53.470;9.832;2023-03-14T15:06:01;7.07;;;2.40;;
8100;SDS011;4093;53.470;9.832;2023-03-14T15:08:29;6.60;;;2.50;;
8100;SDS011;4093;53.470;9.832;2023-03-14T15:11:00;10.80;;;2.43;;
8100;SDS011;4093;53.470;9.832;2023-03-14T15:13:29;10.23;;;2.87;;
8100;SDS011;4093;53.470;9.832;2023-03-14T15:15:57;9.27;;;2.70;;
8100;SDS011;4093;53.470;9.832;2023-03-14T15:18:27;9.63;;;2.80;;
8100;SDS011;4093;53.470;9.832;2023-03-14T15:20:56;14.33;;;3.40;;
8100;SDS011;4093;53.470;9.832;2023-03-14T15:23:24;11.67;;;2.37;;
8100;SDS011;4093;53.470;9.832;2023-03-14T15:25:52;13.07;;;2.90;;
8100;SDS011;4093;53.470;9.832;2023-03-14T15:28:23;7.50;;;2.57;;
8100;SDS011;4093;53.470;9.832;2023-03-14T15:30:54;11.87;;;2.60;;
8100;SDS011;4093;53.470;9.832;2023-03-14T15:33:24;13.87;;;3.13;;
8100;SDS011;4093;53.470;9.832;2023-03-14T15:35:53;8.63;;;2.63;;
8100;SDS011;4093;53.470;9.832;2023-03-14T15:38:23;10.10;;;2.70;;
8100;SDS011;4093;53.470;9.832;2023-03-14T15:40:51;7.97;;;2.63;;
8100;SDS011;4093;53.470;9.832;2023-03-14T15:43:23;7.60;;;2.50;;
8100;SDS011;4093;53.470;9.832;2023-03-14T15:45:52;13.07;;;2.77;;
8100;SDS011;4093;53.470;9.832;2023-03-14T15:48:20;12.90;;;2.90;;
8100;SDS011;4093;53.470;9.832;2023-03-14T15:50:49;7.13;;;2.30;;